Time;durP1;ratioP1;P1;durP2;ratioP2;P2;SDS_P1;SDS_P2;PMS_P1;PMS_P2;Temp;Humidity;BMP_temperature;BMP_pressure;BME280_temperature;BME280_humidity;BME280_pressure;Samples;Min_cycle;Max_cycle;Signal;HPM_P1;HPM_P2
2022/09/21 00:01:06;;;;;;;3.67;1.70;;;19.50;99.90;;;;;;4145224;28;20333;-72
2022/09/21 00:03:09;;;;;;;2.08;1.63;;;19.50;99.90;;;;;;4141952;28;20224;-73
2022/09/21 00:05:13;;;;;;;2.42;1.80;;;19.50;99.90;;;;;;4141355;28;20263;-73
2022/09/21 00:07:15;;;;;;;2.95;1.70;;;19.50;99.90;;;;;;4158006;28;20232;-72
2022/09/21 00:09:18;;;;;;;2.70;2.00;;;19.50;99.90;;;;;;4160522;28;20263;-72
2022/09/21 00:11:23;;;;;;;2.60;1.83;;;19.50;99.90;;;;;;4158867;28;20212;-73
2022/09/21 00:13:27;;;;;;;3.00;1.92;;;19.50;99.90;;;;;;4159684;28;20224;-73
2022/09/21 00:15:30;;;;;;;2.83;1.90;;;19.50;99.90;;;;;;4159646;28;20723;-72
2022/09/21 00:17:33;;;;;;;3.55;2.50;;;19.40;99.90;;;;;;4159506;28;20302;-73
2022/09/21 00:19:36;;;;;;;3.78;1.90;;;19.50;99.90;;;;;;4160615;28;20246;-73
2022/09/21 00:21:41;;;;;;;3.63;1.77;;;19.40;99.90;;;;;;4153387;28;20216;-73
2022/09/21 00:23:43;;;;;;;3.40;2.10;;;19.40;99.90;;;;;;4159620;28;20216;-73
2022/09/21 00:25:46;;;;;;;3.42;2.10;;;19.50;99.90;;;;;;4158907;28;20217;-73
2022/09/21 00:27:50;;;;;;;3.25;2.10;;;19.50;99.90;;;;;;4160387;28;20225;-72
2022/09/21 00:29:53;;;;;;;2.50;1.70;;;19.40;99.90;;;;;;4156321;28;20634;-72
2022/09/21 00:31:55;;;;;;;3.05;2.00;;;19.40;99.90;;;;;;4160677;28;20217;-73
2022/09/21 00:33:59;;;;;;;3.40;2.05;;;19.40;99.90;;;;;;4160274;28;20653;-73
2022/09/21 00:36:06;;;;;;;2.85;1.95;;;19.40;99.90;;;;;;4160500;28;20213;-73
2022/09/21 00:38:09;;;;;;;2.85;2.08;;;19.40;99.90;;;;;;4159381;28;20244;-73
2022/09/21 00:40:12;;;;;;;3.63;2.20;;;19.40;99.90;;;;;;4155758;28;20858;-72
2022/09/21 00:42:18;;;;;;;3.97;2.08;;;19.40;99.90;;;;;;4152048;28;20267;-73
2022/09/21 00:44:31;;;;;;;2.97;2.08;;;19.40;99.90;;;;;;4160430;28;20217;-73
2022/09/21 00:46:37;;;;;;;2.90;2.20;;;19.40;99.90;;;;;;4160869;28;20266;-73
2022/09/21 00:48:41;;;;;;;2.53;2.08;;;19.40;99.90;;;;;;4159886;28;20257;-73
2022/09/21 00:50:48;;;;;;;3.08;2.20;;;19.40;99.90;;;;;;4164249;28;20224;-73
2022/09/21 00:52:55;;;;;;;2.72;2.33;;;19.40;99.90;;;;;;4160032;28;20539;-73
2022/09/21 00:55:06;;;;;;;3.70;2.00;;;19.40;99.90;;;;;;4152266;28;20275;-73
2022/09/21 00:57:09;;;;;;;2.20;1.80;;;19.40;99.90;;;;;;4161931;28;20363;-73
2022/09/21 00:59:15;;;;;;;3.03;1.88;;;19.40;99.90;;;;;;4163458;28;20224;-73
2022/09/21 01:01:19;;;;;;;2.75;2.28;;;19.40;99.90;;;;;;4163534;28;20274;-73
2022/09/21 01:03:21;;;;;;;2.88;2.15;;;19.40;99.90;;;;;;4163330;28;20544;-72
2022/09/21 01:05:25;;;;;;;4.03;2.03;;;19.40;99.90;;;;;;4163475;28;20220;-73
2022/09/21 01:07:32;;;;;;;3.22;2.10;;;19.40;99.90;;;;;;4147345;28;20633;-73
2022/09/21 01:09:35;;;;;;;3.70;2.60;;;19.40;99.90;;;;;;4146469;28;20650;-73
2022/09/21 01:11:51;;;;;;;3.63;2.20;;;19.40;99.90;;;;;;4144160;28;20217;-72
2022/09/21 01:14:11;;;;;;;3.78;1.95;;;19.30;99.90;;;;;;4143982;28;20225;-73
2022/09/21 01:16:17;;;;;;;3.30;2.10;;;19.40;99.90;;;;;;4146486;28;20216;-73
2022/09/21 01:18:27;;;;;;;2.65;2.10;;;19.40;99.90;;;;;;4146228;28;20728;-73
2022/09/21 01:20:52;;;;;;;3.63;2.17;;;19.30;99.90;;;;;;4147063;28;20220;-72
2022/09/21 01:23:08;;;;;;;2.15;1.73;;;19.30;99.90;;;;;;4146558;28;20625;-73
2022/09/21 01:25:23;;;;;;;3.10;2.13;;;19.30;99.90;;;;;;4146652;28;20235;-73
2022/09/21 01:27:53;;;;;;;3.08;1.98;;;19.30;99.90;;;;;;4146790;28;20275;-73
2022/09/21 01:30:01;;;;;;;3.42;2.30;;;19.30;99.90;;;;;;4146207;28;20614;-73
2022/09/21 01:32:09;;;;;;;3.63;2.15;;;19.30;99.90;;;;;;4145964;28;20217;-73
2022/09/21 01:34:18;;;;;;;2.88;2.10;;;19.30;99.90;;;;;;4145294;28;20239;-73
2022/09/21 01:36:25;;;;;;;2.92;2.20;;;19.30;99.90;;;;;;4145779;28;20217;-73
2022/09/21 01:38:32;;;;;;;3.10;2.10;;;19.30;99.90;;;;;;4144198;28;20603;-73
2022/09/21 01:40:38;;;;;;;3.80;2.53;;;19.30;99.90;;;;;;4143175;28;20267;-73
2022/09/21 01:42:44;;;;;;;3.90;2.03;;;19.30;99.90;;;;;;4145108;28;20221;-72
2022/09/21 01:44:49;;;;;;;2.70;2.20;;;19.30;99.90;;;;;;4144811;28;20621;-73
2022/09/21 01:46:53;;;;;;;3.72;2.55;;;19.30;99.90;;;;;;4143653;28;20221;-73
2022/09/21 01:49:02;;;;;;;3.03;2.30;;;19.30;99.90;;;;;;4144579;28;20964;-72
2022/09/21 01:51:09;;;;;;;3.08;2.35;;;19.30;99.90;;;;;;4144749;28;20274;-73
2022/09/21 01:53:18;;;;;;;3.35;2.00;;;19.30;99.90;;;;;;4143555;28;20225;-73
2022/09/21 01:55:27;;;;;;;3.97;2.28;;;19.30;99.90;;;;;;4145082;28;20220;-73
2022/09/21 01:57:35;;;;;;;3.30;2.20;;;19.30;99.90;;;;;;4144577;28;20962;-73
2022/09/21 01:59:46;;;;;;;2.83;2.08;;;19.30;99.90;;;;;;4144463;28;20240;-73
2022/09/21 02:01:56;;;;;;;3.58;2.60;;;19.30;99.90;;;;;;4144586;28;20635;-73
2022/09/21 02:04:02;;;;;;;5.13;2.50;;;19.30;99.90;;;;;;4144731;28;20213;-73
2022/09/21 02:06:06;;;;;;;3.53;2.00;;;19.30;99.90;;;;;;4148535;28;20597;-73
2022/09/21 02:08:11;;;;;;;3.35;2.25;;;19.30;99.90;;;;;;4158485;28;20325;-73
2022/09/21 02:10:21;;;;;;;3.60;2.42;;;19.30;99.90;;;;;;4160983;28;20707;-73
2022/09/21 02:12:23;;;;;;;3.75;2.40;;;19.30;99.90;;;;;;4161498;28;20276;-73
2022/09/21 02:14:26;;;;;;;3.58;2.20;;;19.30;99.90;;;;;;4160882;28;20224;-73
2022/09/21 02:16:38;;;;;;;3.83;2.53;;;19.20;99.90;;;;;;4160541;28;20224;-73
2022/09/21 02:18:56;;;;;;;2.55;2.10;;;19.30;99.90;;;;;;4161095;28;20232;-73
2022/09/21 02:21:02;;;;;;;3.45;2.10;;;19.20;99.90;;;;;;4152439;28;20658;-73
2022/09/21 02:23:11;;;;;;;3.22;2.10;;;19.20;99.90;;;;;;4152279;28;20280;-73
2022/09/21 02:25:20;;;;;;;2.85;2.13;;;19.20;99.90;;;;;;4156902;28;20696;-73
2022/09/21 02:27:32;;;;;;;3.20;2.33;;;19.20;99.90;;;;;;4146829;28;20220;-73
2022/09/21 02:29:45;;;;;;;3.55;2.28;;;19.20;99.90;;;;;;4159307;28;20232;-73
2022/09/21 02:31:51;;;;;;;4.30;2.58;;;19.20;99.90;;;;;;4151094;28;20271;-73
2022/09/21 02:33:59;;;;;;;3.47;2.20;;;19.20;99.90;;;;;;4149495;28;20205;-73
2022/09/21 02:36:08;;;;;;;3.00;2.22;;;19.20;99.90;;;;;;4147339;28;20279;-73
2022/09/21 02:38:16;;;;;;;3.10;2.20;;;19.20;99.90;;;;;;4159060;28;20263;-73
2022/09/21 02:40:28;;;;;;;3.67;2.60;;;19.20;99.90;;;;;;4155609;28;20281;-72
2022/09/21 02:42:35;;;;;;;2.75;1.88;;;19.20;99.90;;;;;;4160010;28;20224;-73
2022/09/21 02:44:41;;;;;;;3.58;2.30;;;19.20;99.90;;;;;;4160661;28;20271;-73
2022/09/21 02:46:49;;;;;;;3.25;2.45;;;19.20;99.90;;;;;;4160310;28;20248;-73
2022/09/21 02:48:55;;;;;;;2.30;2.00;;;19.20;99.90;;;;;;4160313;28;20262;-73
2022/09/21 02:51:03;;;;;;;3.40;2.15;;;19.20;99.90;;;;;;4156497;28;20270;-73
2022/09/21 02:53:07;;;;;;;2.95;2.35;;;19.20;99.90;;;;;;4146035;28;20730;-73
2022/09/21 02:55:11;;;;;;;3.47;2.47;;;19.20;99.90;;;;;;4152494;28;20662;-73
2022/09/21 02:57:15;;;;;;;3.30;2.47;;;19.20;99.90;;;;;;4152479;28;20221;-73
2022/09/21 02:59:18;;;;;;;2.47;1.90;;;19.20;99.90;;;;;;4159063;28;20700;-73
2022/09/21 03:01:22;;;;;;;3.47;2.33;;;19.10;99.90;;;;;;4158324;28;20259;-73
2022/09/21 03:03:25;;;;;;;2.90;2.20;;;19.20;99.90;;;;;;4156748;28;20275;-73
2022/09/21 03:05:28;;;;;;;2.65;2.30;;;19.20;99.90;;;;;;4156559;28;20224;-73
2022/09/21 03:07:33;;;;;;;3.65;2.40;;;19.10;99.90;;;;;;4147420;28;20322;-72
2022/09/21 03:09:35;;;;;;;3.88;2.13;;;19.20;99.90;;;;;;4148400;28;20221;-73
2022/09/21 03:11:37;;;;;;;3.78;2.60;;;19.20;99.90;;;;;;4141803;28;20221;-73
2022/09/21 03:13:40;;;;;;;3.67;2.53;;;19.20;99.90;;;;;;4150080;28;20225;-73
2022/09/21 03:15:44;;;;;;;3.90;2.40;;;19.10;99.90;;;;;;4147231;28;20248;-73
2022/09/21 03:17:46;;;;;;;2.53;2.05;;;19.20;99.90;;;;;;4144899;28;20541;-73
2022/09/21 03:19:49;;;;;;;3.95;2.40;;;19.10;99.90;;;;;;4142529;28;20283;-72
2022/09/21 03:21:53;;;;;;;4.45;2.17;;;19.20;99.90;;;;;;4144983;28;20622;-73
2022/09/21 03:23:57;;;;;;;3.30;2.60;;;19.20;99.90;;;;;;4143511;28;20279;-73
2022/09/21 03:25:59;;;;;;;4.10;2.30;;;19.20;99.90;;;;;;4144433;28;20221;-73
2022/09/21 03:28:02;;;;;;;3.67;2.55;;;19.20;99.90;;;;;;4150268;28;20214;-73
2022/09/21 03:30:05;;;;;;;2.13;1.90;;;19.10;99.90;;;;;;4151757;28;20208;-73
2022/09/21 03:32:08;;;;;;;2.88;2.20;;;19.10;99.90;;;;;;4149696;28;20263;-73
2022/09/21 03:34:10;;;;;;;5.25;2.15;;;19.20;99.90;;;;;;4145940;28;21589;-73
2022/09/21 03:36:12;;;;;;;2.92;2.50;;;19.20;99.90;;;;;;4156018;28;20217;-73
2022/09/21 03:38:16;;;;;;;2.90;2.00;;;19.20;99.90;;;;;;4154011;28;20217;-73
2022/09/21 03:40:19;;;;;;;4.75;2.30;;;19.10;99.90;;;;;;4147248;28;20240;-73
2022/09/21 03:42:22;;;;;;;3.10;2.13;;;19.10;99.90;;;;;;4144508;28;20275;-73
2022/09/21 03:44:25;;;;;;;4.13;2.50;;;19.10;99.90;;;;;;4140178;28;20268;-73
2022/09/21 03:46:28;;;;;;;3.75;2.47;;;19.20;99.90;;;;;;4143315;28;20221;-73
2022/09/21 03:48:31;;;;;;;3.03;2.38;;;19.20;99.90;;;;;;4143045;28;20264;-73
2022/09/21 03:50:33;;;;;;;3.22;2.22;;;19.10;99.90;;;;;;4144364;28;20663;-73
2022/09/21 03:52:36;;;;;;;3.20;2.42;;;19.10;99.90;;;;;;4143618;28;20213;-73
2022/09/21 03:54:38;;;;;;;3.35;2.42;;;19.10;99.90;;;;;;4143300;28;20217;-72
2022/09/21 03:56:42;;;;;;;3.75;2.50;;;19.20;99.90;;;;;;4148813;28;21003;-73
2022/09/21 03:58:44;;;;;;;3.80;2.33;;;19.10;99.90;;;;;;4146149;28;20217;-73
2022/09/21 04:00:47;;;;;;;3.50;2.30;;;19.20;99.90;;;;;;4149828;28;20248;-73
2022/09/21 04:02:49;;;;;;;3.95;2.38;;;19.10;99.90;;;;;;4149267;28;20217;-73
2022/09/21 04:04:51;;;;;;;3.92;2.53;;;19.10;99.90;;;;;;4150115;28;20216;-73
2022/09/21 04:06:53;;;;;;;3.42;2.70;;;19.20;99.90;;;;;;4143264;28;20233;-73
2022/09/21 04:08:56;;;;;;;3.55;2.42;;;19.20;99.90;;;;;;4143318;28;20272;-73
2022/09/21 04:10:58;;;;;;;3.42;2.22;;;19.10;99.90;;;;;;4142980;28;20533;-73
2022/09/21 04:13:03;;;;;;;3.47;2.28;;;19.10;99.90;;;;;;4143202;28;20674;-73
2022/09/21 04:15:06;;;;;;;3.30;2.25;;;19.10;99.90;;;;;;4142680;28;20252;-73
2022/09/21 04:17:10;;;;;;;3.17;2.33;;;19.10;99.90;;;;;;4142933;28;20263;-73
2022/09/21 04:19:13;;;;;;;2.22;1.98;;;19.10;99.90;;;;;;4141518;28;20283;-73
2022/09/21 04:21:15;;;;;;;3.25;2.08;;;19.10;99.90;;;;;;4143013;28;20275;-73
2022/09/21 04:23:18;;;;;;;3.63;2.50;;;19.10;99.90;;;;;;4143251;28;20284;-73
2022/09/21 04:25:21;;;;;;;3.42;2.60;;;19.10;99.90;;;;;;4143299;28;20225;-73
2022/09/21 04:27:23;;;;;;;4.70;2.70;;;19.10;99.90;;;;;;4142943;28;20217;-73
2022/09/21 04:29:26;;;;;;;4.30;2.60;;;19.10;99.90;;;;;;4142212;28;20716;-73
2022/09/21 04:31:30;;;;;;;2.33;2.13;;;19.10;99.90;;;;;;4145743;28;20221;-73
2022/09/21 04:33:32;;;;;;;3.00;2.50;;;19.10;99.90;;;;;;4146472;28;20265;-73
2022/09/21 04:35:34;;;;;;;3.22;2.35;;;19.10;99.90;;;;;;4145537;28;20224;-73
2022/09/21 04:37:37;;;;;;;3.53;2.67;;;19.10;99.90;;;;;;4145974;28;20225;-73
2022/09/21 04:39:39;;;;;;;3.20;2.00;;;19.10;99.90;;;;;;4144129;28;20681;-73
2022/09/21 04:41:42;;;;;;;2.80;2.53;;;19.10;99.90;;;;;;4146143;28;20224;-73
2022/09/21 04:43:46;;;;;;;2.63;2.30;;;19.10;99.90;;;;;;4146139;28;20221;-73
2022/09/21 04:45:49;;;;;;;2.05;1.85;;;19.10;99.90;;;;;;4146041;28;20220;-73
2022/09/21 04:47:52;;;;;;;2.50;2.30;;;19.10;99.90;;;;;;4145410;28;20632;-73
2022/09/21 04:49:54;;;;;;;3.03;2.42;;;19.00;99.90;;;;;;4148326;28;20279;-73
2022/09/21 04:51:56;;;;;;;3.72;2.47;;;19.00;99.90;;;;;;4145682;28;20272;-73
2022/09/21 04:53:59;;;;;;;3.03;2.50;;;19.10;99.90;;;;;;4146260;28;20260;-73
2022/09/21 04:56:01;;;;;;;2.50;2.20;;;19.10;99.90;;;;;;4145899;28;20217;-72
2022/09/21 04:58:04;;;;;;;4.28;2.40;;;19.10;99.90;;;;;;4146112;28;20715;-73
2022/09/21 05:00:07;;;;;;;5.07;2.33;;;19.00;99.90;;;;;;4145561;28;20233;-73
2022/09/21 05:02:11;;;;;;;4.18;2.33;;;19.10;99.90;;;;;;4145822;28;20269;-72
2022/09/21 05:04:13;;;;;;;4.25;2.20;;;19.10;99.90;;;;;;4145604;28;20221;-73
2022/09/21 05:06:15;;;;;;;2.55;2.25;;;19.00;99.90;;;;;;4148605;28;20233;-72
2022/09/21 05:10:01;;;;;;;3.55;2.45;;;19.00;99.90;;;;;;4153954;28;20217;-73
2022/09/21 05:10:39;;;;;;;3.83;2.42;;;19.10;99.90;;;;;;4144043;28;20268;-73
2022/09/21 05:12:42;;;;;;;2.33;2.00;;;19.10;99.90;;;;;;4147689;28;20209;-73
2022/09/21 05:14:44;;;;;;;3.28;2.35;;;19.00;99.90;;;;;;4147889;28;20228;-72
2022/09/21 05:16:48;;;;;;;2.35;2.15;;;19.00;99.90;;;;;;4146565;28;20217;-73
2022/09/21 05:18:53;;;;;;;3.88;2.60;;;19.00;99.90;;;;;;4152000;28;20294;-72
2022/09/21 05:20:56;;;;;;;3.67;2.33;;;19.00;99.90;;;;;;4147241;28;20245;-73
2022/09/21 05:23:01;;;;;;;3.60;2.15;;;19.00;99.90;;;;;;4146352;28;20222;-73
2022/09/21 05:25:03;;;;;;;2.78;2.00;;;19.00;99.90;;;;;;4147117;28;20288;-73
2022/09/21 05:27:05;;;;;;;3.08;2.30;;;19.00;99.90;;;;;;4145081;28;20225;-73
2022/09/21 05:29:09;;;;;;;3.22;2.45;;;19.00;99.90;;;;;;4153330;28;20220;-73
2022/09/21 05:31:38;;;;;;;2.40;2.20;;;19.00;99.90;;;;;;4151769;28;20217;-73
2022/09/21 05:33:44;;;;;;;3.35;2.33;;;19.00;99.90;;;;;;4137863;28;20220;-73
2022/09/21 05:35:58;;;;;;;4.90;2.60;;;19.00;99.90;;;;;;4145237;28;20657;-73
2022/09/21 05:38:07;;;;;;;2.47;2.13;;;19.00;99.90;;;;;;4145064;28;20244;-72
2022/09/21 05:40:11;;;;;;;2.67;2.40;;;19.00;99.90;;;;;;4150289;28;20636;-73
2022/09/21 05:42:14;;;;;;;2.80;2.33;;;19.00;99.90;;;;;;4144245;28;20217;-73
2022/09/21 05:44:17;;;;;;;3.47;2.50;;;19.00;99.90;;;;;;4145408;28;20233;-72
2022/09/21 05:46:28;;;;;;;4.65;2.72;;;19.00;99.90;;;;;;4148574;28;20283;-73
2022/09/21 05:48:37;;;;;;;3.25;1.98;;;19.00;99.90;;;;;;4146804;28;20639;-72
2022/09/21 05:50:59;;;;;;;3.13;2.30;;;19.00;99.90;;;;;;4149288;28;20209;-73
2022/09/21 05:53:12;;;;;;;3.42;2.30;;;19.00;99.90;;;;;;4145993;28;20221;-73
2022/09/21 05:55:25;;;;;;;3.08;2.60;;;19.00;99.90;;;;;;4150956;28;20661;-72
2022/09/21 05:57:37;;;;;;;3.22;2.47;;;19.00;99.90;;;;;;4147443;28;20295;-73
2022/09/21 05:59:53;;;;;;;3.78;2.53;;;19.00;99.90;;;;;;4144948;28;20232;-73
2022/09/21 06:02:03;;;;;;;3.20;2.80;;;19.00;99.90;;;;;;4144937;28;20237;-73
2022/09/21 06:04:11;;;;;;;3.05;2.40;;;19.00;99.90;;;;;;4146057;28;20244;-73
2022/09/21 06:06:15;;;;;;;3.35;2.53;;;19.00;99.90;;;;;;4146413;28;20231;-73
2022/09/21 06:08:17;;;;;;;2.88;2.42;;;19.00;99.90;;;;;;4144629;28;20228;-73
2022/09/21 06:10:19;;;;;;;2.58;2.30;;;18.90;99.90;;;;;;4144839;28;20217;-73
2022/09/21 06:12:22;;;;;;;3.33;2.60;;;19.00;99.90;;;;;;4144717;28;20629;-73
2022/09/21 06:14:25;;;;;;;2.65;2.30;;;19.00;99.90;;;;;;4144461;28;20627;-73
2022/09/21 06:16:27;;;;;;;4.03;2.63;;;19.00;99.90;;;;;;4144036;28;20205;-73
2022/09/21 06:18:30;;;;;;;2.80;2.15;;;19.00;99.90;;;;;;4143534;28;20276;-73
2022/09/21 06:20:32;;;;;;;3.08;2.30;;;19.00;99.90;;;;;;4144665;28;20237;-73
2022/09/21 06:22:36;;;;;;;4.03;2.70;;;18.90;99.90;;;;;;4144902;28;20205;-73
2022/09/21 06:24:38;;;;;;;2.50;2.20;;;19.00;99.90;;;;;;4144388;28;20214;-73
2022/09/21 06:26:41;;;;;;;2.50;2.30;;;19.00;99.90;;;;;;4144411;28;20213;-73
2022/09/21 06:28:44;;;;;;;3.88;2.40;;;19.00;99.90;;;;;;4144285;28;20263;-72
2022/09/21 06:30:51;;;;;;;3.17;2.30;;;19.00;99.90;;;;;;4144454;28;20613;-73
2022/09/21 06:32:53;;;;;;;4.97;2.60;;;19.00;99.90;;;;;;4144545;28;20297;-73
2022/09/21 06:34:55;;;;;;;2.85;2.33;;;19.00;99.90;;;;;;4143466;28;20260;-73
2022/09/21 06:36:58;;;;;;;2.67;2.00;;;19.00;99.90;;;;;;4144362;28;20221;-73
2022/09/21 06:39:01;;;;;;;2.92;2.30;;;19.00;99.90;;;;;;4144262;28;20262;-76
2022/09/21 06:41:04;;;;;;;3.65;2.50;;;19.00;99.90;;;;;;4144324;28;20305;-76
2022/09/21 06:43:07;;;;;;;3.28;2.58;;;19.00;99.90;;;;;;4144298;28;20217;-76
2022/09/21 06:45:10;;;;;;;3.55;2.40;;;19.00;99.90;;;;;;4144056;28;20662;-76
2022/09/21 06:47:12;;;;;;;7.93;3.75;;;19.00;99.90;;;;;;4137304;28;20268;-76
2022/09/21 06:49:14;;;;;;;9.50;5.90;;;19.00;99.90;;;;;;4138333;28;20276;-76
2022/09/21 06:51:16;;;;;;;17.05;7.28;;;18.80;99.90;;;;;;4139805;28;20670;-76
2022/09/21 06:53:19;;;;;;;20.70;7.28;;;18.70;99.90;;;;;;4140954;28;20726;-76
2022/09/21 06:55:23;;;;;;;10.40;6.55;;;18.60;99.90;;;;;;4141084;28;20254;-74
2022/09/21 06:57:25;;;;;;;13.55;8.07;;;18.50;99.90;;;;;;4142686;28;20221;-75
2022/09/21 06:59:27;;;;;;;13.15;7.90;;;18.40;99.90;;;;;;4142032;28;20279;-75
2022/09/21 07:01:29;;;;;;;14.63;7.68;;;18.40;99.90;;;;;;4138290;28;20236;-75
2022/09/21 07:03:32;;;;;;;13.77;7.47;;;18.40;99.90;;;;;;4141393;28;20607;-76
2022/09/21 07:05:34;;;;;;;10.88;6.45;;;18.30;99.90;;;;;;4143609;28;20267;-76
2022/09/21 07:07:36;;;;;;;11.02;5.80;;;18.30;99.90;;;;;;4157020;28;20262;-77
2022/09/21 07:09:39;;;;;;;9.48;4.57;;;18.50;99.90;;;;;;4154227;28;20315;-74
2022/09/21 07:11:42;;;;;;;9.13;5.00;;;18.50;99.90;;;;;;4161632;28;20204;-76
2022/09/21 07:13:45;;;;;;;8.82;4.82;;;18.50;99.90;;;;;;4146733;28;20220;-76
2022/09/21 07:15:47;;;;;;;7.35;5.07;;;18.60;99.90;;;;;;4157719;28;20208;-76
2022/09/21 07:17:49;;;;;;;9.80;5.30;;;18.70;99.90;;;;;;4156283;28;20286;-75
2022/09/21 07:19:51;;;;;;;8.77;5.13;;;18.80;99.90;;;;;;4154492;28;20267;-74
2022/09/21 07:21:54;;;;;;;11.40;5.35;;;18.80;99.90;;;;;;4153657;28;20695;-75
2022/09/21 07:23:59;;;;;;;7.50;4.78;;;18.90;99.90;;;;;;4152198;28;20220;-75
2022/09/21 07:26:03;;;;;;;14.23;5.10;;;18.90;99.90;;;;;;4150020;28;20239;-75
2022/09/21 07:28:07;;;;;;;9.82;4.95;;;19.00;99.90;;;;;;4152670;28;20220;-74
2022/09/21 07:30:10;;;;;;;6.75;4.75;;;19.10;99.90;;;;;;4154947;28;20270;-75
2022/09/21 07:32:13;;;;;;;11.75;4.63;;;19.10;99.90;;;;;;4154356;28;20208;-75
2022/09/21 07:34:15;;;;;;;6.82;5.00;;;19.10;99.90;;;;;;4155257;28;20209;-77
2022/09/21 07:36:18;;;;;;;10.55;5.05;;;19.20;99.90;;;;;;4148710;28;20216;-76
2022/09/21 07:38:20;;;;;;;9.57;4.82;;;19.10;99.90;;;;;;4152118;28;20216;-75
2022/09/21 07:40:23;;;;;;;10.88;4.70;;;19.20;99.90;;;;;;4149275;28;20314;-75
2022/09/21 07:42:26;;;;;;;7.75;4.47;;;19.20;99.90;;;;;;4149983;28;21044;-76
2022/09/21 07:44:30;;;;;;;9.98;5.22;;;19.20;99.90;;;;;;4149172;28;20279;-76
2022/09/21 07:46:33;;;;;;;7.65;4.82;;;19.20;99.90;;;;;;4151508;28;20263;-75
2022/09/21 07:48:35;;;;;;;8.70;4.60;;;19.30;99.90;;;;;;4146946;28;20274;-77
2022/09/21 07:50:37;;;;;;;8.20;4.20;;;19.30;99.90;;;;;;4156881;28;20216;-76
2022/09/21 07:52:40;;;;;;;9.02;4.43;;;19.30;99.90;;;;;;4150431;28;20714;-75
2022/09/21 07:54:42;;;;;;;7.63;4.22;;;19.30;99.90;;;;;;4154360;28;20263;-77
2022/09/21 07:59:04;;;;;;;9.90;5.00;;;19.30;99.90;;;;;;4155445;28;20282;-76
2022/09/21 07:59:10;;;;;;;7.10;4.10;;;19.30;99.90;;;;;;4152531;28;20263;-76
2022/09/21 08:01:14;;;;;;;6.68;4.07;;;19.40;99.90;;;;;;4156136;28;20212;-77
2022/09/21 08:03:17;;;;;;;7.32;4.72;;;19.40;99.90;;;;;;4155025;28;20351;-77
2022/09/21 08:05:19;;;;;;;7.80;4.72;;;19.30;99.90;;;;;;4154707;28;20259;-77
2022/09/21 08:07:22;;;;;;;11.77;4.82;;;19.40;99.90;;;;;;4139148;28;20240;-77
2022/09/21 08:09:24;;;;;;;6.95;4.30;;;19.40;99.90;;;;;;4139251;28;20600;-77
2022/09/21 08:11:29;;;;;;;10.70;3.97;;;19.40;99.90;;;;;;4138337;28;20554;-76
2022/09/21 08:13:31;;;;;;;6.57;4.00;;;19.40;99.90;;;;;;4135318;28;20213;-76
2022/09/21 08:15:33;;;;;;;11.82;5.03;;;19.40;99.90;;;;;;4134614;28;20648;-77
2022/09/21 08:17:38;;;;;;;8.00;4.70;;;19.50;99.90;;;;;;4127349;28;20619;-76
2022/09/21 08:19:40;;;;;;;7.93;4.50;;;19.50;99.90;;;;;;4133094;28;20209;-76
2022/09/21 08:21:43;;;;;;;11.60;4.60;;;19.60;99.90;;;;;;4126731;28;20276;-76
2022/09/21 08:23:47;;;;;;;7.78;4.40;;;19.50;99.90;;;;;;4127071;28;20245;-76
2022/09/21 08:25:50;;;;;;;10.32;4.72;;;19.50;99.90;;;;;;4139515;28;20221;-74
2022/09/21 08:27:52;;;;;;;8.88;4.45;;;19.60;99.90;;;;;;4136111;28;20256;-76
2022/09/21 08:29:54;;;;;;;6.93;4.40;;;19.60;99.90;;;;;;4133594;28;20267;-76
2022/09/21 08:31:56;;;;;;;7.10;3.75;;;19.60;99.90;;;;;;4136678;28;20217;-75
2022/09/21 08:34:00;;;;;;;9.25;4.15;;;19.60;99.90;;;;;;4133800;28;20272;-76
2022/09/21 08:36:03;;;;;;;7.78;3.78;;;19.60;99.90;;;;;;4139930;28;20620;-76
2022/09/21 08:38:05;;;;;;;6.00;3.83;;;19.50;99.90;;;;;;4136531;28;20233;-77
2022/09/21 08:40:10;;;;;;;9.82;4.47;;;19.50;99.90;;;;;;4133529;28;20293;-75
2022/09/21 08:42:43;;;;;;;8.60;4.45;;;19.50;99.90;;;;;;4126936;28;20271;-75
2022/09/21 08:44:53;;;;;;;7.20;4.03;;;19.60;99.90;;;;;;4130242;28;20740;-75
2022/09/21 08:47:05;;;;;;;6.47;3.75;;;19.50;99.90;;;;;;4139656;28;20213;-75
2022/09/21 08:49:16;;;;;;;10.40;4.22;;;19.60;99.90;;;;;;4134794;28;20307;-74
2022/09/21 08:51:24;;;;;;;10.65;4.35;;;19.60;99.90;;;;;;4138969;28;20267;-74
2022/09/21 08:53:31;;;;;;;8.68;3.95;;;19.50;99.90;;;;;;4140772;28;20225;-76
2022/09/21 08:55:34;;;;;;;6.15;3.97;;;19.50;99.90;;;;;;4138963;28;20214;-76
2022/09/21 08:57:36;;;;;;;8.77;4.05;;;19.60;99.90;;;;;;4135467;28;20306;-74
2022/09/21 08:59:41;;;;;;;6.25;3.80;;;19.60;99.90;;;;;;4133342;28;20229;-74
2022/09/21 09:01:57;;;;;;;7.30;4.28;;;19.60;99.90;;;;;;4139605;28;20236;-74
2022/09/21 09:04:25;;;;;;;8.57;4.05;;;19.70;99.90;;;;;;4135172;28;20240;-74
2022/09/21 09:06:41;;;;;;;6.65;3.88;;;19.70;99.90;;;;;;4135246;28;20299;-75
2022/09/21 09:09:04;;;;;;;11.43;4.07;;;19.70;99.90;;;;;;4137996;28;20280;-73
2022/09/21 09:11:24;;;;;;;6.03;3.67;;;19.70;99.90;;;;;;4142173;28;20224;-73
2022/09/21 09:13:49;;;;;;;7.35;4.40;;;19.70;99.90;;;;;;4131306;28;20816;-74
2022/09/21 09:16:03;;;;;;;9.82;4.13;;;19.70;99.90;;;;;;4131728;28;20672;-74
2022/09/21 09:18:14;;;;;;;5.35;3.50;;;19.70;99.90;;;;;;4143055;28;20213;-74
2022/09/21 09:20:21;;;;;;;8.93;4.10;;;19.70;99.90;;;;;;4142408;28;20291;-74
2022/09/21 09:22:27;;;;;;;8.35;3.75;;;19.70;99.90;;;;;;4140526;28;20237;-75
2022/09/21 09:24:35;;;;;;;8.57;3.42;;;19.70;99.90;;;;;;4140602;28;20711;-76
2022/09/21 09:26:42;;;;;;;10.57;4.13;;;19.80;99.90;;;;;;4142595;28;20696;-75
2022/09/21 09:28:48;;;;;;;6.90;3.88;;;19.80;99.90;;;;;;4143945;28;20279;-75
2022/09/21 09:31:01;;;;;;;6.43;3.65;;;19.80;99.90;;;;;;4144582;28;20209;-74
2022/09/21 09:33:08;;;;;;;6.43;3.90;;;19.90;99.90;;;;;;4138477;28;20639;-75
2022/09/21 09:35:22;;;;;;;10.70;4.18;;;19.80;99.90;;;;;;4144384;28;20259;-73
2022/09/21 09:37:32;;;;;;;6.75;3.40;;;19.90;99.90;;;;;;4141014;28;20217;-74
2022/09/21 09:39:35;;;;;;;6.53;3.60;;;19.80;99.90;;;;;;4142466;28;20212;-74
2022/09/21 09:41:56;;;;;;;6.38;3.63;;;19.80;99.90;;;;;;4138829;28;20227;-73
2022/09/21 09:44:15;;;;;;;8.48;4.05;;;19.90;99.90;;;;;;4138134;28;20267;-72
2022/09/21 09:46:24;;;;;;;8.88;3.70;;;19.90;99.90;;;;;;4136580;28;20221;-71
2022/09/21 09:48:44;;;;;;;6.03;3.65;;;19.80;99.90;;;;;;4141523;28;20263;-72
2022/09/21 09:50:47;;;;;;;6.60;3.42;;;19.80;99.90;;;;;;4143042;28;20221;-71
2022/09/21 09:52:53;;;;;;;6.45;3.60;;;19.90;99.90;;;;;;4138925;28;20258;-72
2022/09/21 09:54:55;;;;;;;9.20;3.20;;;19.80;99.90;;;;;;4143684;28;20287;-73
2022/09/21 09:56:58;;;;;;;8.00;3.17;;;19.90;99.90;;;;;;4141086;28;20728;-76
2022/09/21 09:59:07;;;;;;;7.72;3.30;;;19.90;99.90;;;;;;4138739;28;20291;-75
2022/09/21 10:01:09;;;;;;;6.22;2.92;;;19.90;99.90;;;;;;4140615;28;20224;-75
2022/09/21 10:03:18;;;;;;;8.68;3.38;;;19.90;99.90;;;;;;4139344;28;20237;-75
2022/09/21 10:05:23;;;;;;;10.40;3.28;;;19.90;99.90;;;;;;4140043;28;20216;-75
2022/09/21 10:07:36;;;;;;;7.00;3.47;;;19.90;99.90;;;;;;4151561;28;20240;-74
2022/09/21 10:09:38;;;;;;;6.97;3.50;;;20.00;99.90;;;;;;4149324;28;20275;-77
2022/09/21 10:11:41;;;;;;;6.03;3.35;;;19.90;99.90;;;;;;4149245;28;20213;-78
2022/09/21 10:13:45;;;;;;;9.18;3.50;;;19.90;99.90;;;;;;4153131;28;20216;-77
2022/09/21 10:15:51;;;;;;;4.03;2.97;;;19.90;99.90;;;;;;4155901;28;20221;-77
2022/09/21 10:18:04;;;;;;;9.57;3.55;;;20.00;99.90;;;;;;4155357;28;20282;-76
2022/09/21 10:20:08;;;;;;;7.05;3.28;;;20.10;99.90;;;;;;4158215;28;20212;-75
2022/09/21 10:22:16;;;;;;;6.30;3.20;;;20.00;99.90;;;;;;4134961;28;20221;-75
2022/09/21 10:24:23;;;;;;;7.95;3.15;;;20.00;99.90;;;;;;4143564;28;20244;-75
2022/09/21 10:26:31;;;;;;;5.05;3.13;;;20.00;99.90;;;;;;4148453;28;20262;-75
2022/09/21 10:28:34;;;;;;;6.50;3.10;;;20.00;99.90;;;;;;4151764;28;20596;-78
2022/09/21 10:30:38;;;;;;;6.07;2.83;;;20.10;99.90;;;;;;4151560;28;20232;-76
2022/09/21 10:32:55;;;;;;;7.00;3.60;;;20.00;99.90;;;;;;4152556;28;20278;-76
2022/09/21 10:35:18;;;;;;;5.93;3.40;;;20.10;99.90;;;;;;4146321;28;20772;-76
2022/09/21 10:37:27;;;;;;;8.50;3.08;;;20.10;99.90;;;;;;4154499;28;20228;-77
2022/09/21 10:39:31;;;;;;;6.30;3.00;;;20.10;99.90;;;;;;4159153;28;20216;-77
2022/09/21 10:41:33;;;;;;;6.40;3.05;;;20.10;99.90;;;;;;4155343;28;20724;-75
2022/09/21 10:43:43;;;;;;;5.93;2.85;;;20.10;99.90;;;;;;4154590;28;20294;-75
2022/09/21 10:45:54;;;;;;;4.40;2.78;;;20.10;99.90;;;;;;4157934;28;20270;-74
2022/09/21 10:47:58;;;;;;;7.78;2.85;;;20.10;99.90;;;;;;4155919;28;20282;-74
2022/09/21 10:50:03;;;;;;;3.78;3.05;;;20.10;99.90;;;;;;4155135;28;21074;-74
2022/09/21 10:52:05;;;;;;;10.88;3.00;;;20.20;99.90;;;;;;4154192;28;20212;-75
2022/09/21 10:54:10;;;;;;;6.93;2.65;;;20.10;99.90;;;;;;4155829;28;20662;-76